createdAt,value
2022-12-04T00:02:10.028Z,0.34
2022-12-04T00:04:38.236Z,0.31
2022-12-04T00:07:15.662Z,0.35
2022-12-04T00:09:59.705Z,0.33
2022-12-04T00:12:29.611Z,0.29
2022-12-04T00:15:24.694Z,0.35
2022-12-04T00:17:49.292Z,0.25
2022-12-04T00:20:17.257Z,0.32
2022-12-04T00:22:45.261Z,0.34
2022-12-04T00:25:14.566Z,0.32
2022-12-04T00:27:42.579Z,0.33
2022-12-04T00:30:11.773Z,0.32
2022-12-04T00:32:40.775Z,0.37
2022-12-04T00:35:10.239Z,0.28
2022-12-04T00:37:39.581Z,0.36
2022-12-04T00:40:09.279Z,0.36
2022-12-04T00:42:38.498Z,0.36
2022-12-04T00:45:07.326Z,0.35
2022-12-04T00:47:36.363Z,0.26
2022-12-04T00:50:05.987Z,0.31
2022-12-04T00:52:33.912Z,0.30
2022-12-04T00:55:10.609Z,0.24
2022-12-04T00:57:44.227Z,0.26
2022-12-04T01:00:12.540Z,0.25
2022-12-04T01:02:41.411Z,0.33
2022-12-04T01:05:09.966Z,0.29
2022-12-04T01:07:45.717Z,0.28
2022-12-04T01:10:14.260Z,0.21
2022-12-04T01:12:43.621Z,0.24
2022-12-04T01:15:11.935Z,0.28
2022-12-04T01:17:59.399Z,0.22
2022-12-04T01:20:28.469Z,0.24
2022-12-04T01:22:56.404Z,0.24
2022-12-04T01:25:24.255Z,0.21
2022-12-04T01:27:57.263Z,0.28
2022-12-04T01:30:25.192Z,0.21
2022-12-04T01:32:52.962Z,0.19
2022-12-04T01:35:20.970Z,0.20
2022-12-04T01:37:48.930Z,0.20
2022-12-04T01:40:19.125Z,0.21
2022-12-04T01:42:47.094Z,0.16
2022-12-04T01:45:40.801Z,0.18
2022-12-04T01:48:17.490Z,0.16
2022-12-04T01:50:49.072Z,0.17
2022-12-04T01:53:17.367Z,0.18
2022-12-04T01:55:46.459Z,0.16
2022-12-04T01:58:18.489Z,0.20
2022-12-04T02:00:56.880Z,0.16
2022-12-04T02:03:26.173Z,0.14
2022-12-04T02:05:54.029Z,0.11
2022-12-04T02:08:21.991Z,0.13
2022-12-04T02:11:00.040Z,0.09
2022-12-04T02:13:36.515Z,0.14
2022-12-04T02:16:11.707Z,0.17
2022-12-04T02:18:56.226Z,0.19
2022-12-04T02:21:32.430Z,0.15
2022-12-04T02:24:15.193Z,0.14
2022-12-04T02:26:50.223Z,0.15
2022-12-04T02:29:42.445Z,-0.02
2022-12-04T02:32:20.719Z,0.11
2022-12-04T02:35:05.799Z,0.13
2022-12-04T02:37:38.791Z,0.08
2022-12-04T02:40:13.410Z,-0.01
2022-12-04T02:42:46.616Z,0.01
2022-12-04T02:45:21.572Z,0.02
2022-12-04T02:47:49.438Z,0.01
2022-12-04T02:50:24.322Z,0.01
2022-12-04T02:52:56.087Z,0.00
2022-12-04T02:55:30.184Z,-0.08
2022-12-04T02:58:02.310Z,-0.15
2022-12-04T03:00:33.986Z,-0.09
2022-12-04T03:03:10.455Z,-0.05
2022-12-04T03:05:42.801Z,-0.14
2022-12-04T03:08:17.081Z,-0.09
2022-12-04T03:10:54.762Z,-0.16
2022-12-04T03:13:27.519Z,-0.12
2022-12-04T03:16:05.629Z,-0.11
2022-12-04T03:18:40.568Z,-0.09
2022-12-04T03:21:11.829Z,-0.10
2022-12-04T03:23:48.685Z,-0.12
2022-12-04T03:26:25.410Z,-0.13
2022-12-04T03:28:58.868Z,-0.17
2022-12-04T03:31:36.996Z,-0.11
2022-12-04T03:34:07.739Z,-0.19
2022-12-04T03:36:39.101Z,-0.18
2022-12-04T03:39:14.155Z,-0.20
2022-12-04T03:41:53.579Z,-0.17
2022-12-04T03:44:28.537Z,-0.17
2022-12-04T03:47:04.529Z,-0.22
2022-12-04T03:49:39.630Z,-0.25
2022-12-04T03:52:14.434Z,-0.31
2022-12-04T03:54:49.058Z,-0.30
2022-12-04T03:57:21.863Z,-0.26
2022-12-04T03:59:56.041Z,-0.41
2022-12-04T04:02:33.566Z,-0.30
2022-12-04T04:05:04.156Z,-0.25
2022-12-04T04:07:36.925Z,-0.31
2022-12-04T04:10:09.235Z,-0.30
2022-12-04T04:12:42.365Z,-0.24
2022-12-04T04:15:32.562Z,-0.23
2022-12-04T04:18:20.612Z,-0.32
2022-12-04T04:21:11.510Z,-0.31
2022-12-04T04:24:02.185Z,-0.31
2022-12-04T04:26:35.286Z,-0.31
2022-12-04T04:29:04.326Z,-0.31
2022-12-04T04:31:39.327Z,-0.26
2022-12-04T04:34:17.887Z,-0.24
2022-12-04T04:36:56.358Z,-0.33
2022-12-04T04:39:32.505Z,-0.28
2022-12-04T04:42:07.558Z,-0.30
2022-12-04T04:44:46.097Z,-0.25
2022-12-04T04:47:19.578Z,-0.32
2022-12-04T04:49:52.178Z,-0.36
2022-12-04T04:52:24.228Z,-0.33
2022-12-04T04:54:53.426Z,-0.33
2022-12-04T04:57:29.849Z,-0.37
2022-12-04T04:59:58.055Z,-0.33
2022-12-04T05:02:36.526Z,-0.37
2022-12-04T05:05:10.713Z,-0.33
2022-12-04T05:07:44.637Z,-0.43
2022-12-04T05:10:14.115Z,-0.34
2022-12-04T05:12:41.965Z,-0.34
2022-12-04T05:15:10.828Z,-0.41
2022-12-04T05:17:38.861Z,-0.41
2022-12-04T05:20:07.482Z,-0.41
2022-12-04T05:22:38.531Z,-0.43
2022-12-04T05:25:07.177Z,-0.45
2022-12-04T05:27:35.145Z,-0.42
2022-12-04T05:30:03.191Z,-0.37
2022-12-04T05:32:31.534Z,-0.40
2022-12-04T05:34:59.717Z,-0.31
2022-12-04T05:37:27.935Z,-0.35
2022-12-04T05:39:57.357Z,-0.32
2022-12-04T05:42:25.553Z,-0.34
2022-12-04T05:44:54.489Z,-0.35
2022-12-04T05:47:22.324Z,-0.36
2022-12-04T05:49:50.164Z,-0.31
2022-12-04T05:52:18.038Z,-0.31
2022-12-04T05:54:45.862Z,-0.31
2022-12-04T05:57:15.420Z,-0.29
2022-12-04T05:59:43.267Z,-0.34
2022-12-04T06:02:11.215Z,-0.32
2022-12-04T06:04:39.465Z,-0.25
2022-12-04T06:07:07.247Z,-0.28
2022-12-04T06:09:35.169Z,-0.26
2022-12-04T06:12:03.243Z,-0.24
2022-12-04T06:14:39.115Z,-0.28
2022-12-04T06:17:07.802Z,-0.28
2022-12-04T06:19:35.850Z,-0.25
2022-12-04T06:22:03.631Z,-0.26
2022-12-04T06:24:37.249Z,-0.24
2022-12-04T06:27:26.722Z,-0.23
2022-12-04T06:29:54.664Z,-0.28
2022-12-04T06:32:22.846Z,-0.23
2022-12-04T06:34:54.984Z,-0.25
2022-12-04T06:37:25.180Z,-0.24
2022-12-04T06:39:53.707Z,-0.27
2022-12-04T06:42:25.109Z,-0.26
2022-12-04T06:44:54.377Z,-0.22
2022-12-04T06:47:22.386Z,-0.29
2022-12-04T06:49:52.316Z,-0.30
2022-12-04T06:52:33.942Z,-0.33
2022-12-04T06:55:01.891Z,-0.30
2022-12-04T06:57:29.721Z,-0.35
2022-12-04T07:00:01.509Z,-0.31
2022-12-04T07:02:30.463Z,-0.39
2022-12-04T07:04:58.398Z,-0.36
2022-12-04T07:07:26.275Z,-0.43
2022-12-04T07:09:54.475Z,-0.43
2022-12-04T07:12:22.752Z,-0.44
2022-12-04T07:14:50.790Z,-0.44
2022-12-04T07:17:19.966Z,-0.44
2022-12-04T07:19:50.040Z,-0.44
2022-12-04T07:22:18.004Z,-0.46
2022-12-04T07:24:45.925Z,-0.42
2022-12-04T07:27:13.907Z,-0.33
2022-12-04T07:29:47.962Z,-0.32
2022-12-04T07:32:15.975Z,-0.45
2022-12-04T07:34:45.213Z,-0.39
2022-12-04T07:37:13.241Z,-0.37
2022-12-04T07:39:41.314Z,-0.41
2022-12-04T07:42:09.127Z,-0.40
2022-12-04T07:44:38.010Z,-0.44
2022-12-04T07:47:05.923Z,-0.39
2022-12-04T07:49:37.750Z,-0.37
2022-12-04T07:52:08.082Z,-0.27
2022-12-04T07:54:37.437Z,-0.37
2022-12-04T07:57:05.653Z,-0.33
2022-12-04T07:59:33.841Z,-0.28
2022-12-04T08:02:01.770Z,-0.33
2022-12-04T08:04:29.968Z,-0.28
2022-12-04T08:06:57.904Z,-0.32
2022-12-04T08:09:27.277Z,-0.21
2022-12-04T08:11:55.191Z,-0.23
2022-12-04T08:14:23.131Z,-0.25
2022-12-04T08:16:53.036Z,-0.20
2022-12-04T08:19:22.341Z,-0.17
2022-12-04T08:21:50.245Z,-0.17
2022-12-04T08:24:19.733Z,-0.15
2022-12-04T08:26:49.129Z,-0.17
2022-12-04T08:29:17.028Z,-0.14
2022-12-04T08:31:44.970Z,-0.16
2022-12-04T08:34:13.154Z,-0.08
2022-12-04T08:36:41.349Z,-0.13
2022-12-04T08:39:11.427Z,-0.09
2022-12-04T08:41:39.441Z,-0.05
2022-12-04T08:44:08.814Z,-0.07
2022-12-04T08:46:40.302Z,-0.12
2022-12-04T08:49:09.256Z,0.02
2022-12-04T08:51:43.234Z,0.08
2022-12-04T08:54:14.785Z,0.08
2022-12-04T08:56:49.019Z,0.05
2022-12-04T08:59:22.432Z,0.07
2022-12-04T09:01:51.637Z,0.15
2022-12-04T09:04:22.502Z,0.22
2022-12-04T09:06:51.454Z,0.18
2022-12-04T09:09:21.059Z,0.21
2022-12-04T09:12:12.607Z,0.19
2022-12-04T09:14:42.372Z,0.18
2022-12-04T09:17:10.412Z,0.29
2022-12-04T09:19:39.269Z,0.25
2022-12-04T09:22:07.209Z,0.27
2022-12-04T09:24:35.118Z,0.32
2022-12-04T09:27:08.617Z,0.32
2022-12-04T09:29:39.631Z,0.35
2022-12-04T09:32:09.240Z,0.32
2022-12-04T09:34:37.263Z,0.44
2022-12-04T09:37:05.363Z,0.46
2022-12-04T09:39:33.390Z,0.47
2022-12-04T09:42:21.449Z,0.54
2022-12-04T09:44:56.347Z,0.54
2022-12-04T09:47:36.391Z,0.60
2022-12-04T09:50:12.450Z,0.64
2022-12-04T09:52:48.607Z,0.68
2022-12-04T09:55:22.563Z,0.66
2022-12-04T09:57:59.972Z,0.70
2022-12-04T10:00:31.729Z,0.80
2022-12-04T10:03:05.755Z,0.80
2022-12-04T10:05:48.730Z,0.76
2022-12-04T10:08:22.946Z,0.89
2022-12-04T10:11:01.494Z,0.92
2022-12-04T10:13:56.683Z,0.93
2022-12-04T10:16:31.335Z,1.00
2022-12-04T10:19:08.078Z,1.03
2022-12-04T10:21:49.885Z,1.15
2022-12-04T10:24:29.262Z,1.22
2022-12-04T10:27:01.131Z,1.25
2022-12-04T10:29:33.889Z,1.30
2022-12-04T10:32:15.962Z,1.36
2022-12-04T10:34:46.491Z,1.52
2022-12-04T10:37:15.716Z,1.55
2022-12-04T10:39:54.716Z,1.54
2022-12-04T10:42:32.377Z,1.59
2022-12-04T10:45:00.425Z,1.63
2022-12-04T10:47:29.142Z,1.74
2022-12-04T10:50:01.710Z,1.77
2022-12-04T10:52:30.440Z,1.76
2022-12-04T10:55:01.105Z,1.77
2022-12-04T10:57:41.503Z,1.83
2022-12-04T11:00:27.070Z,1.79
2022-12-04T11:02:57.738Z,1.78
2022-12-04T11:05:39.900Z,1.78
2022-12-04T11:08:09.316Z,1.80
2022-12-04T11:10:41.614Z,1.81
2022-12-04T11:13:17.635Z,1.90
2022-12-04T11:15:46.919Z,1.82
2022-12-04T11:18:20.327Z,1.79
2022-12-04T11:20:55.581Z,1.75
2022-12-04T11:23:26.195Z,1.76
2022-12-04T11:26:02.038Z,1.67
2022-12-04T11:28:44.045Z,1.67
2022-12-04T11:31:19.226Z,1.67
2022-12-04T11:33:49.426Z,1.74
2022-12-04T11:36:23.744Z,1.71
2022-12-04T11:38:54.402Z,1.66
2022-12-04T11:41:30.175Z,1.69
2022-12-04T11:44:00.759Z,1.66
2022-12-04T11:46:39.079Z,1.73
2022-12-04T11:49:22.911Z,1.81
2022-12-04T11:52:05.118Z,1.71
2022-12-04T11:54:39.029Z,1.63
2022-12-04T11:57:23.738Z,1.72
2022-12-04T12:00:04.655Z,1.72
2022-12-04T12:02:47.850Z,1.74
2022-12-04T12:05:42.687Z,1.78
2022-12-04T12:08:23.325Z,1.80
2022-12-04T12:11:02.563Z,1.80
2022-12-04T12:13:40.869Z,1.76
2022-12-04T12:16:13.556Z,1.79
2022-12-04T12:18:55.016Z,1.84
2022-12-04T12:21:26.437Z,1.83
2022-12-04T12:24:18.654Z,1.88
2022-12-04T12:26:56.342Z,1.82
2022-12-04T12:29:52.626Z,1.88
2022-12-04T12:32:34.122Z,1.77
2022-12-04T12:35:21.502Z,1.85
2022-12-04T12:37:53.809Z,1.79
2022-12-04T12:40:36.139Z,1.89
2022-12-04T12:43:24.567Z,1.87
2022-12-04T12:45:59.933Z,1.89
2022-12-04T12:48:37.266Z,1.85
2022-12-04T12:51:34.533Z,2.03
2022-12-04T12:54:49.109Z,2.03
2022-12-04T12:57:48.375Z,2.05
2022-12-04T13:01:08.226Z,2.08
2022-12-04T13:04:29.581Z,2.10
2022-12-04T13:07:13.988Z,2.10
2022-12-04T13:09:48.837Z,2.03
2022-12-04T13:12:23.830Z,1.87
2022-12-04T13:14:53.826Z,1.99
2022-12-04T13:17:32.205Z,1.93
2022-12-04T13:20:09.554Z,1.87
2022-12-04T13:22:54.191Z,2.02
2022-12-04T13:25:38.742Z,2.01
2022-12-04T13:28:20.335Z,2.03
2022-12-04T13:30:59.055Z,1.93
2022-12-04T13:33:51.552Z,2.00
2022-12-04T13:36:45.570Z,2.10
2022-12-04T13:39:44.359Z,2.13
2022-12-04T13:42:25.352Z,1.95
2022-12-04T13:44:59.730Z,1.96
2022-12-04T13:47:35.628Z,2.13
2022-12-04T13:50:29.684Z,2.13
2022-12-04T13:56:09.576Z,2.13
2022-12-04T13:58:40.032Z,2.18
2022-12-04T14:01:26.053Z,2.01
2022-12-04T14:03:57.637Z,2.12
2022-12-04T14:06:28.731Z,2.11
2022-12-04T14:08:59.839Z,2.16
2022-12-04T14:11:32.961Z,2.09
2022-12-04T14:14:06.478Z,2.10
2022-12-04T14:16:40.567Z,2.10
2022-12-04T14:19:10.035Z,2.03
2022-12-04T14:21:42.209Z,2.01
2022-12-04T14:24:18.489Z,1.99
2022-12-04T14:29:48.937Z,1.89
2022-12-04T14:32:22.881Z,1.92
2022-12-04T14:34:51.350Z,1.89
2022-12-04T14:37:24.778Z,1.89
2022-12-04T14:39:54.583Z,1.87
2022-12-04T14:42:27.425Z,1.70
2022-12-04T14:44:58.847Z,1.87
2022-12-04T14:47:43.937Z,1.84
2022-12-04T14:50:30.704Z,1.89
2022-12-04T14:53:10.221Z,1.86
2022-12-04T14:55:46.732Z,1.88
2022-12-04T14:58:31.421Z,1.85
2022-12-04T15:01:03.046Z,1.83
2022-12-04T15:03:35.570Z,1.88
2022-12-04T15:06:06.447Z,1.89
2022-12-04T15:08:34.454Z,1.90
2022-12-04T15:11:20.138Z,1.85
2022-12-04T15:13:49.520Z,1.89
2022-12-04T15:16:23.515Z,1.93
2022-12-04T15:18:58.470Z,1.97
2022-12-04T15:21:36.364Z,1.98
2022-12-04T15:24:09.552Z,1.97
2022-12-04T15:26:39.225Z,1.97
2022-12-04T15:29:10.600Z,1.99
2022-12-04T15:31:43.401Z,2.02
2022-12-04T15:34:17.064Z,2.01
2022-12-04T15:36:49.651Z,2.05
2022-12-04T15:39:21.095Z,2.05
2022-12-04T15:41:49.171Z,2.06
2022-12-04T15:44:28.534Z,2.05
2022-12-04T15:46:59.028Z,2.05
2022-12-04T15:49:28.849Z,2.12
2022-12-04T15:52:06.738Z,2.15
2022-12-04T15:54:36.431Z,2.05
2022-12-04T15:57:07.464Z,2.23
2022-12-04T15:59:37.363Z,2.32
2022-12-04T16:02:09.846Z,2.35
2022-12-04T16:04:42.486Z,2.35
2022-12-04T16:07:22.181Z,2.31
2022-12-04T16:09:59.562Z,2.34
2022-12-04T16:12:33.486Z,2.41
2022-12-04T16:15:03.152Z,2.43
2022-12-04T16:17:33.266Z,2.45
2022-12-04T16:20:02.007Z,2.41
2022-12-04T16:22:31.467Z,2.43
2022-12-04T16:25:00.084Z,2.45
2022-12-04T16:27:29.483Z,2.44
2022-12-04T16:29:57.465Z,2.42
2022-12-04T16:32:31.440Z,2.45
2022-12-04T16:34:59.504Z,2.51
2022-12-04T16:37:29.983Z,2.48
2022-12-04T16:39:58.281Z,2.49
2022-12-04T16:42:28.770Z,2.52
2022-12-04T16:44:57.176Z,2.47
2022-12-04T16:47:26.620Z,2.51
2022-12-04T16:49:54.699Z,2.48
2022-12-04T16:52:22.655Z,2.45
2022-12-04T16:54:50.806Z,2.46
2022-12-04T16:57:18.670Z,2.47
2022-12-04T16:59:46.659Z,2.50
2022-12-04T17:02:18.451Z,2.56
2022-12-04T17:04:50.407Z,2.55
2022-12-04T17:07:22.040Z,2.57
2022-12-04T17:09:49.973Z,2.56
2022-12-04T17:12:17.843Z,2.55
2022-12-04T17:14:47.570Z,2.60
2022-12-04T17:17:15.559Z,2.66
2022-12-04T17:19:43.444Z,2.65
2022-12-04T17:22:14.408Z,2.61
2022-12-04T17:24:49.139Z,2.61
2022-12-04T17:27:20.742Z,2.63
2022-12-04T17:29:48.636Z,2.64
2022-12-04T17:32:17.145Z,2.70
2022-12-04T17:34:46.431Z,2.68
2022-12-04T17:37:15.849Z,2.63
2022-12-04T17:40:04.551Z,2.68
2022-12-04T17:42:35.728Z,2.60
2022-12-04T17:45:06.034Z,2.63
2022-12-04T17:47:36.588Z,2.70
2022-12-04T17:50:13.654Z,2.58
2022-12-04T17:52:43.227Z,2.66
2022-12-04T17:55:11.981Z,2.63
2022-12-04T17:57:49.704Z,2.80
2022-12-04T18:00:20.930Z,2.61
2022-12-04T18:03:02.115Z,2.79
2022-12-04T18:05:46.545Z,2.79
2022-12-04T18:08:17.094Z,2.65
2022-12-04T18:10:45.624Z,2.63
2022-12-04T18:13:15.713Z,2.74
2022-12-04T18:15:54.261Z,2.72
2022-12-04T18:18:22.822Z,2.89
2022-12-04T18:21:12.710Z,2.88
2022-12-04T18:23:51.225Z,2.92
2022-12-04T18:26:21.867Z,2.74
2022-12-04T18:28:58.951Z,2.78
2022-12-04T18:31:54.448Z,2.81
2022-12-04T18:34:32.230Z,2.71
2022-12-04T18:37:04.473Z,2.98
2022-12-04T18:39:47.163Z,2.88
2022-12-04T18:42:15.135Z,2.94
2022-12-04T18:44:42.975Z,2.97
2022-12-04T18:47:14.127Z,2.99
2022-12-04T18:49:52.668Z,3.05
2022-12-04T18:52:20.694Z,3.01
2022-12-04T18:54:54.426Z,3.04
2022-12-04T18:57:22.287Z,3.04
2022-12-04T18:59:55.339Z,3.10
2022-12-04T19:02:25.131Z,3.13
2022-12-04T19:04:55.356Z,3.08
2022-12-04T19:07:24.292Z,3.12
2022-12-04T19:10:10.387Z,3.14
2022-12-04T19:12:44.842Z,3.18
2022-12-04T19:15:15.424Z,3.20
2022-12-04T19:17:43.356Z,3.19
2022-12-04T19:20:12.011Z,3.17
2022-12-04T19:22:44.717Z,3.21
2022-12-04T19:25:14.527Z,3.21
2022-12-04T19:27:45.650Z,3.19
2022-12-04T19:30:14.501Z,3.16
2022-12-04T19:32:42.492Z,3.20
2022-12-04T19:35:10.730Z,3.23
2022-12-04T19:37:42.277Z,3.26
2022-12-04T19:40:13.928Z,3.14
2022-12-04T19:42:44.530Z,3.30
2022-12-04T19:45:14.367Z,3.25
2022-12-04T19:47:42.595Z,3.23
2022-12-04T19:50:11.618Z,3.28
2022-12-04T19:52:40.604Z,3.36
2022-12-04T19:55:10.146Z,3.32
2022-12-04T19:57:38.136Z,3.36
2022-12-04T20:00:09.239Z,3.38
2022-12-04T20:02:39.323Z,3.35
2022-12-04T20:05:08.925Z,3.44
2022-12-04T20:07:37.831Z,3.42
2022-12-04T20:10:09.083Z,3.37
2022-12-04T20:12:38.039Z,3.40
2022-12-04T20:15:08.110Z,3.43
2022-12-04T20:17:36.529Z,3.49
2022-12-04T20:20:18.390Z,3.50
2022-12-04T20:23:07.268Z,3.47
2022-12-04T20:25:58.327Z,3.51
2022-12-04T20:28:30.200Z,3.49
2022-12-04T20:30:59.871Z,3.52
2022-12-04T20:33:28.326Z,3.52
2022-12-04T20:36:01.188Z,3.53
2022-12-04T20:38:30.267Z,3.53
2022-12-04T20:40:58.291Z,3.48
2022-12-04T20:43:26.120Z,3.54
2022-12-04T20:45:54.359Z,3.56
2022-12-04T20:48:34.459Z,3.54
2022-12-04T20:51:02.388Z,3.56
2022-12-04T20:53:30.781Z,3.59
2022-12-04T20:55:59.495Z,3.57
2022-12-04T20:58:28.619Z,3.56
2022-12-04T21:00:57.784Z,3.53
2022-12-04T21:03:28.896Z,3.47
2022-12-04T21:05:58.112Z,3.58
2022-12-04T21:08:40.030Z,3.56
2022-12-04T21:11:07.900Z,3.60
2022-12-04T21:13:55.235Z,3.60
2022-12-04T21:16:24.400Z,3.57
2022-12-04T21:18:53.681Z,3.61
2022-12-04T21:21:21.680Z,3.59
2022-12-04T21:23:49.558Z,3.65
2022-12-04T21:26:17.444Z,3.69
2022-12-04T21:28:45.466Z,3.65
2022-12-04T21:31:13.882Z,3.70
2022-12-04T21:33:41.845Z,3.73
2022-12-04T21:36:18.831Z,3.72
2022-12-04T21:38:46.787Z,3.73
2022-12-04T21:41:35.348Z,3.75
2022-12-04T21:44:05.707Z,3.74
2022-12-04T21:46:33.829Z,3.73
2022-12-04T21:49:02.419Z,3.77
2022-12-04T21:51:56.277Z,3.77
2022-12-04T21:54:20.446Z,3.76
2022-12-04T21:56:48.492Z,3.78
2022-12-04T21:59:17.384Z,3.77
2022-12-04T22:01:45.707Z,3.81
2022-12-04T22:04:13.899Z,3.85
2022-12-04T22:06:44.182Z,3.76
2022-12-04T22:09:13.900Z,3.86
2022-12-04T22:11:43.460Z,3.86
2022-12-04T22:14:12.822Z,3.92
2022-12-04T22:16:43.470Z,3.96
2022-12-04T22:19:15.356Z,3.93
2022-12-04T22:21:47.748Z,3.80
2022-12-04T22:24:17.338Z,3.86
2022-12-04T22:26:45.430Z,3.90
2022-12-04T22:29:48.683Z,3.94
2022-12-04T22:32:08.605Z,3.99
2022-12-04T22:34:36.811Z,3.93
2022-12-04T22:37:07.583Z,3.92
2022-12-04T22:39:35.792Z,4.00
2022-12-04T22:42:14.901Z,4.03
2022-12-04T22:44:42.853Z,3.98
2022-12-04T22:47:10.877Z,3.95
2022-12-04T22:49:38.829Z,3.98
2022-12-04T22:52:25.858Z,3.97
2022-12-04T22:54:53.783Z,4.03
2022-12-04T22:57:21.752Z,4.03
2022-12-04T22:59:49.537Z,3.98
2022-12-04T23:02:19.151Z,3.98
2022-12-04T23:04:48.281Z,4.10
2022-12-04T23:07:16.411Z,4.09
2022-12-04T23:09:45.980Z,4.10
2022-12-04T23:12:15.106Z,4.11
2022-12-04T23:15:01.396Z,4.16
2022-12-04T23:17:37.270Z,4.04
2022-12-04T23:20:06.079Z,4.16
2022-12-04T23:22:33.906Z,4.24
2022-12-04T23:25:03.418Z,4.23
2022-12-04T23:27:32.850Z,4.25
2022-12-04T23:30:05.020Z,4.25
2022-12-04T23:32:32.958Z,4.24
2022-12-04T23:35:03.180Z,4.22
2022-12-04T23:37:31.154Z,4.25
2022-12-04T23:39:59.183Z,4.17
2022-12-04T23:42:35.469Z,4.20
2022-12-04T23:45:03.333Z,4.17
2022-12-04T23:47:32.244Z,4.12
2022-12-04T23:50:00.252Z,4.17
2022-12-04T23:52:29.481Z,4.20
2022-12-04T23:54:57.798Z,4.20
2022-12-04T23:57:25.803Z,4.18
2022-12-04T23:59:55.533Z,4.20
